createdAt,value
2018-02-23T00:00:22.976Z,7.40
2018-02-23T00:02:50.832Z,6.70
2018-02-23T00:05:18.494Z,7.43
2018-02-23T00:07:48.901Z,7.18
2018-02-23T00:10:16.828Z,8.33
2018-02-23T00:12:45.112Z,8.23
2018-02-23T00:15:12.823Z,8.57
2018-02-23T00:17:41.553Z,8.40
2018-02-23T00:20:09.238Z,9.97
2018-02-23T00:22:43.148Z,8.73
2018-02-23T00:25:12.623Z,8.80
2018-02-23T00:27:40.190Z,7.80
2018-02-23T00:30:07.995Z,9.10
2018-02-23T00:32:35.637Z,9.17
2018-02-23T00:35:03.197Z,9.80
2018-02-23T00:37:30.831Z,9.20
2018-02-23T00:39:58.615Z,9.43
2018-02-23T00:42:26.206Z,9.50
2018-02-23T00:44:53.876Z,9.10
2018-02-23T00:47:21.717Z,10.30
2018-02-23T00:49:49.468Z,11.53
2018-02-23T00:52:17.022Z,9.60
2018-02-23T00:54:44.712Z,9.70
2018-02-23T00:57:12.931Z,9.17
2018-02-23T00:59:40.507Z,9.07
2018-02-23T01:02:08.097Z,10.10
2018-02-23T01:04:35.778Z,10.25
2018-02-23T01:07:03.333Z,10.70
2018-02-23T01:09:31.135Z,10.05
2018-02-23T01:11:58.712Z,9.03
2018-02-23T01:14:26.481Z,8.33
2018-02-23T01:16:54.035Z,9.07
2018-02-23T01:19:22.252Z,8.30
2018-02-23T01:21:50.041Z,10.10
2018-02-23T01:24:17.758Z,9.10
2018-02-23T01:26:45.402Z,8.93
2018-02-23T01:29:13.197Z,8.37
2018-02-23T01:31:40.788Z,9.07
2018-02-23T01:34:08.387Z,8.10
2018-02-23T01:36:35.920Z,8.50
2018-02-23T01:39:03.599Z,8.73
2018-02-23T01:41:31.201Z,7.90
2018-02-23T01:43:58.936Z,7.40
2018-02-23T01:46:26.496Z,7.60
2018-02-23T01:48:54.028Z,7.17
2018-02-23T01:51:21.826Z,6.57
2018-02-23T01:53:49.490Z,7.15
2018-02-23T01:56:17.092Z,6.70
2018-02-23T01:58:44.951Z,6.85
2018-02-23T02:01:12.756Z,6.60
2018-02-23T02:03:40.293Z,6.17
2018-02-23T02:06:07.946Z,5.90
2018-02-23T02:08:36.321Z,6.93
2018-02-23T02:11:04.011Z,6.70
2018-02-23T02:13:31.698Z,6.13
2018-02-23T02:15:59.347Z,6.83
2018-02-23T02:18:27.026Z,6.03
2018-02-23T02:20:54.818Z,6.97
2018-02-23T02:23:22.496Z,6.73
2018-02-23T02:25:50.420Z,6.67
2018-02-23T02:28:17.955Z,6.50
2018-02-23T02:30:46.488Z,6.30
2018-02-23T02:33:14.075Z,6.30
2018-02-23T02:35:41.836Z,5.90
2018-02-23T02:38:09.820Z,5.80
2018-02-23T02:40:37.735Z,6.70
2018-02-23T02:43:05.589Z,6.95
2018-02-23T02:45:33.332Z,6.00
2018-02-23T02:48:00.982Z,7.00
2018-02-23T02:50:28.572Z,6.17
2018-02-23T02:52:56.287Z,7.28
2018-02-23T02:55:23.918Z,6.33
2018-02-23T02:57:51.766Z,6.60
2018-02-23T03:00:19.887Z,6.67
2018-02-23T03:02:47.816Z,6.83
2018-02-23T03:05:15.634Z,6.47
2018-02-23T03:07:43.392Z,7.43
2018-02-23T03:10:11.036Z,6.63
2018-02-23T03:12:38.598Z,7.30
2018-02-23T03:15:06.291Z,7.03
2018-02-23T03:17:33.983Z,7.73
2018-02-23T03:20:02.451Z,6.97
2018-02-23T03:22:30.801Z,7.45
2018-02-23T03:24:58.723Z,7.53
2018-02-23T03:27:26.558Z,7.70
2018-02-23T03:29:54.236Z,7.97
2018-02-23T03:32:22.001Z,10.00
2018-02-23T03:34:49.738Z,8.43
2018-02-23T03:37:17.356Z,7.90
2018-02-23T03:39:45.233Z,7.00
2018-02-23T03:42:12.823Z,8.98
2018-02-23T03:44:40.566Z,8.40
2018-02-23T03:47:08.271Z,7.57
2018-02-23T03:49:37.948Z,8.53
2018-02-23T03:52:05.603Z,8.60
2018-02-23T03:54:33.453Z,8.57
2018-02-23T03:57:01.008Z,8.95
2018-02-23T03:59:28.648Z,8.23
2018-02-23T04:01:56.846Z,8.57
2018-02-23T04:04:24.381Z,7.80
2018-02-23T04:06:51.948Z,9.00
2018-02-23T04:09:19.519Z,8.63
2018-02-23T04:11:47.337Z,8.10
2018-02-23T04:14:14.916Z,8.37
2018-02-23T04:16:42.491Z,8.83
2018-02-23T04:19:10.293Z,9.33
2018-02-23T04:21:37.936Z,9.43
2018-02-23T04:24:05.509Z,9.17
2018-02-23T04:26:33.166Z,10.00
2018-02-23T04:29:01.032Z,9.27
2018-02-23T04:31:28.647Z,9.50
2018-02-23T04:33:56.591Z,8.07
2018-02-23T04:36:24.188Z,9.10
2018-02-23T04:38:52.437Z,9.27
2018-02-23T04:41:20.156Z,10.60
2018-02-23T04:43:47.687Z,9.10
2018-02-23T04:46:15.468Z,9.93
2018-02-23T04:48:43.036Z,10.23
2018-02-23T04:51:10.646Z,9.77
2018-02-23T04:53:38.254Z,8.83
2018-02-23T04:56:06.192Z,9.60
2018-02-23T04:58:33.788Z,10.70
2018-02-23T05:01:01.597Z,10.00
2018-02-23T05:03:29.627Z,9.37
2018-02-23T05:05:57.437Z,9.97
2018-02-23T05:08:25.357Z,10.10
2018-02-23T05:10:53.212Z,10.07
2018-02-23T05:13:20.923Z,9.37
2018-02-23T05:15:48.798Z,11.17
2018-02-23T05:18:16.472Z,9.30
2018-02-23T05:20:44.156Z,9.30
2018-02-23T05:23:11.874Z,8.77
2018-02-23T05:25:40.166Z,9.30
2018-02-23T05:28:08.176Z,8.80
2018-02-23T05:30:35.888Z,9.00
2018-02-23T05:33:03.822Z,8.97
2018-02-23T05:35:31.451Z,9.37
2018-02-23T05:37:59.143Z,7.97
2018-02-23T05:40:27.126Z,9.30
2018-02-23T05:42:54.693Z,8.83
2018-02-23T05:45:22.442Z,9.13
2018-02-23T05:47:50.371Z,9.73
2018-02-23T05:50:17.968Z,9.50
2018-02-23T05:52:45.702Z,10.50
2018-02-23T05:55:13.328Z,9.10
2018-02-23T05:57:40.994Z,9.90
2018-02-23T06:00:08.687Z,9.40
2018-02-23T06:02:36.391Z,9.80
2018-02-23T06:05:04.149Z,8.90
2018-02-23T06:07:32.107Z,9.73
2018-02-23T06:09:59.829Z,10.87
2018-02-23T06:12:27.517Z,10.50
2018-02-23T06:14:55.271Z,8.60
2018-02-23T06:17:28.536Z,11.68
2018-02-23T06:20:01.681Z,10.33
2018-02-23T06:22:29.251Z,10.65
2018-02-23T06:24:57.007Z,10.30
2018-02-23T06:27:24.556Z,11.00
2018-02-23T06:29:52.351Z,20.70
2018-02-23T06:32:20.048Z,12.27
2018-02-23T06:34:47.759Z,9.63
2018-02-23T06:37:15.498Z,11.30
2018-02-23T06:39:43.090Z,13.10
2018-02-23T06:42:10.824Z,11.37
2018-02-23T06:44:38.497Z,11.33
2018-02-23T06:47:12.097Z,10.30
2018-02-23T06:49:39.803Z,10.73
2018-02-23T06:52:07.572Z,11.68
2018-02-23T06:54:35.337Z,10.10
2018-02-23T06:57:03.092Z,12.00
2018-02-23T06:59:30.779Z,9.52
2018-02-23T07:01:58.685Z,9.97
2018-02-23T07:04:26.353Z,12.33
2018-02-23T07:06:54.097Z,12.50
2018-02-23T07:09:21.891Z,13.00
2018-02-23T07:11:49.883Z,14.20
2018-02-23T07:14:17.588Z,21.57
2018-02-23T07:16:45.321Z,28.57
2018-02-23T07:19:13.016Z,12.60
2018-02-23T07:21:40.783Z,14.33
2018-02-23T07:24:08.677Z,14.23
2018-02-23T07:26:36.284Z,18.57
2018-02-23T07:29:03.822Z,18.50
2018-02-23T07:31:31.410Z,14.33
2018-02-23T07:33:58.987Z,16.43
2018-02-23T07:36:26.821Z,14.27
2018-02-23T07:38:55.007Z,15.90
2018-02-23T07:41:22.573Z,13.87
2018-02-23T07:43:50.321Z,12.10
2018-02-23T07:46:17.964Z,14.10
2018-02-23T07:48:45.697Z,13.33
2018-02-23T07:51:14.469Z,13.80
2018-02-23T07:53:42.063Z,15.45
2018-02-23T07:56:09.832Z,13.83
2018-02-23T07:58:37.706Z,11.35
2018-02-23T08:01:05.418Z,12.90
2018-02-23T08:03:33.198Z,12.10
2018-02-23T08:06:00.942Z,12.90
2018-02-23T08:08:28.533Z,12.97
2018-02-23T08:10:56.473Z,11.03
2018-02-23T08:13:24.756Z,11.50
2018-02-23T08:15:52.453Z,13.63
2018-02-23T08:18:20.003Z,12.80
2018-02-23T08:20:47.653Z,12.67
2018-02-23T08:23:15.492Z,11.63
2018-02-23T08:25:43.111Z,12.40
2018-02-23T08:28:10.893Z,12.70
2018-02-23T08:30:38.886Z,13.07
2018-02-23T08:33:07.118Z,12.93
2018-02-23T08:35:35.054Z,13.10
2018-02-23T08:38:02.779Z,13.13
2018-02-23T08:40:30.576Z,11.97
2018-02-23T08:42:58.150Z,12.17
2018-02-23T08:45:26.426Z,13.40
2018-02-23T08:47:54.033Z,17.33
2018-02-23T08:50:21.615Z,16.10
2018-02-23T08:52:49.152Z,13.70
2018-02-23T08:55:16.972Z,14.70
2018-02-23T08:57:44.831Z,14.50
2018-02-23T09:00:19.559Z,14.40
2018-02-23T09:02:47.430Z,13.23
2018-02-23T09:05:15.098Z,12.50
2018-02-23T09:07:42.752Z,12.77
2018-02-23T09:10:10.351Z,13.03
2018-02-23T09:12:38.144Z,13.60
2018-02-23T09:15:05.832Z,15.30
2018-02-23T09:17:33.707Z,14.70
2018-02-23T09:20:01.335Z,13.23
2018-02-23T09:22:29.012Z,13.38
2018-02-23T09:24:56.623Z,13.73
2018-02-23T09:27:24.196Z,15.57
2018-02-23T09:29:51.887Z,14.23
2018-02-23T09:32:32.058Z,16.23
2018-02-23T09:35:00.234Z,13.63
2018-02-23T09:37:27.862Z,16.40
2018-02-23T09:39:56.138Z,16.07
2018-02-23T09:42:23.732Z,16.37
2018-02-23T09:44:56.398Z,16.30
2018-02-23T09:47:24.042Z,15.30
2018-02-23T09:49:51.633Z,13.97
2018-02-23T09:52:20.176Z,13.80
2018-02-23T09:54:47.884Z,15.60
2018-02-23T09:57:15.552Z,14.70
2018-02-23T09:59:43.291Z,15.30
2018-02-23T10:02:10.932Z,16.73
2018-02-23T10:04:38.711Z,15.53
2018-02-23T10:07:06.273Z,16.53
2018-02-23T10:09:34.021Z,13.82
2018-02-23T10:12:01.911Z,15.00
2018-02-23T10:14:30.142Z,15.43
2018-02-23T10:16:58.168Z,15.50
2018-02-23T10:19:25.859Z,14.87
2018-02-23T10:21:53.786Z,14.47
2018-02-23T10:24:21.751Z,13.85
2018-02-23T10:26:49.548Z,15.23
2018-02-23T10:29:17.097Z,15.27
2018-02-23T10:31:44.757Z,15.37
2018-02-23T10:34:12.788Z,15.33
2018-02-23T10:36:40.487Z,16.17
2018-02-23T10:39:08.399Z,16.67
2018-02-23T10:41:36.776Z,16.08
2018-02-23T10:44:04.776Z,15.97
2018-02-23T10:46:32.383Z,16.20
2018-02-23T10:49:00.116Z,14.67
2018-02-23T10:51:27.931Z,15.73
2018-02-23T10:53:55.673Z,17.30
2018-02-23T10:56:23.582Z,15.40
2018-02-23T10:58:51.678Z,14.80
2018-02-23T11:01:19.313Z,15.00
2018-02-23T11:03:47.158Z,15.50
2018-02-23T11:06:15.038Z,14.57
2018-02-23T11:08:42.763Z,16.77
2018-02-23T11:11:10.397Z,15.45
2018-02-23T11:13:38.319Z,16.13
2018-02-23T11:16:06.873Z,17.07
2018-02-23T11:18:34.534Z,17.30
2018-02-23T11:21:02.199Z,16.87
2018-02-23T11:23:29.906Z,16.43
2018-02-23T11:25:57.584Z,16.60
2018-02-23T11:28:25.233Z,16.70
2018-02-23T11:30:52.872Z,17.60
2018-02-23T11:33:20.644Z,16.80
2018-02-23T11:35:48.323Z,19.10
2018-02-23T11:38:16.083Z,17.47
2018-02-23T11:40:43.742Z,17.83
2018-02-23T11:43:11.372Z,19.35
2018-02-23T11:45:39.270Z,17.27
2018-02-23T11:48:06.822Z,17.77
2018-02-23T11:50:34.700Z,18.37
2018-02-23T11:53:02.294Z,15.30
2018-02-23T11:55:30.037Z,33.33
2018-02-23T11:58:09.412Z,27.80
2018-02-23T12:00:37.319Z,19.92
2018-02-23T12:03:05.582Z,19.75
2018-02-23T12:05:34.412Z,18.52
2018-02-23T12:08:02.358Z,19.03
2018-02-23T12:10:32.049Z,28.15
2018-02-23T12:12:59.727Z,21.00
2018-02-23T12:15:27.424Z,18.57
2018-02-23T12:17:55.261Z,18.30
2018-02-23T12:20:23.024Z,18.52
2018-02-23T12:22:50.576Z,17.50
2018-02-23T12:25:18.288Z,18.50
2018-02-23T12:27:46.859Z,18.70
2018-02-23T12:34:00.603Z,17.97
2018-02-23T12:36:28.731Z,17.20
2018-02-23T12:38:58.307Z,17.02
2018-02-23T12:41:26.168Z,16.03
2018-02-23T12:43:53.751Z,17.53
2018-02-23T12:46:21.339Z,18.20
2018-02-23T12:48:49.636Z,16.27
2018-02-23T12:51:17.434Z,16.97
2018-02-23T12:53:45.201Z,18.13
2018-02-23T12:56:12.766Z,15.80
2018-02-23T12:58:40.392Z,16.00
2018-02-23T13:01:08.157Z,16.50
2018-02-23T13:03:35.731Z,15.57
2018-02-23T13:06:04.254Z,17.33
2018-02-23T13:08:31.822Z,15.80
2018-02-23T13:10:59.421Z,18.63
2018-02-23T13:13:27.079Z,14.67
2018-02-23T13:15:54.859Z,16.93
2018-02-23T13:18:22.472Z,16.50
2018-02-23T13:20:50.147Z,16.97
2018-02-23T13:23:17.889Z,16.40
2018-02-23T13:25:45.712Z,18.60
2018-02-23T13:28:18.978Z,18.10
2018-02-23T13:30:46.524Z,17.47
2018-02-23T13:33:14.542Z,15.83
2018-02-23T13:35:42.413Z,17.93
2018-02-23T13:38:10.128Z,16.67
2018-02-23T13:40:37.892Z,17.93
2018-02-23T13:43:05.448Z,16.33
2018-02-23T13:45:33.092Z,15.93
2018-02-23T13:48:00.708Z,18.77
2018-02-23T13:50:28.652Z,16.73
2018-02-23T13:52:56.416Z,17.80
2018-02-23T13:55:24.231Z,16.97
2018-02-23T13:57:51.851Z,23.40
2018-02-23T14:00:19.483Z,17.23
2018-02-23T14:02:47.067Z,17.57
2018-02-23T14:05:14.996Z,18.40
2018-02-23T14:07:43.517Z,17.33
2018-02-23T14:10:11.277Z,19.02
2018-02-23T14:12:39.064Z,16.70
2018-02-23T14:15:06.866Z,18.07
2018-02-23T14:17:34.551Z,18.10
2018-02-23T14:20:02.648Z,16.30
2018-02-23T14:22:30.571Z,16.20
2018-02-23T14:24:58.147Z,17.07
2018-02-23T14:27:25.973Z,17.63
2018-02-23T14:29:53.611Z,16.47
2018-02-23T14:32:21.759Z,17.12
2018-02-23T14:34:49.469Z,18.20
2018-02-23T14:37:17.019Z,17.60
2018-02-23T14:39:44.735Z,16.73
2018-02-23T14:42:12.453Z,16.30
2018-02-23T14:44:42.219Z,16.27
2018-02-23T14:47:10.083Z,16.10
2018-02-23T14:49:50.094Z,17.97
2018-02-23T14:52:17.674Z,19.27
2018-02-23T14:54:45.664Z,16.95
2018-02-23T14:57:13.374Z,17.15
2018-02-23T14:59:41.052Z,16.33
2018-02-23T15:02:08.588Z,17.15
2018-02-23T15:04:36.376Z,24.50
2018-02-23T15:07:04.735Z,16.80
2018-02-23T15:09:32.348Z,17.50
2018-02-23T15:11:59.919Z,17.90
2018-02-23T15:14:27.562Z,16.40
2018-02-23T15:16:55.262Z,17.17
2018-02-23T15:19:22.844Z,16.43
2018-02-23T15:21:51.138Z,16.80
2018-02-23T15:24:18.867Z,16.83
2018-02-23T15:26:46.639Z,18.43
2018-02-23T15:29:14.295Z,17.63
2018-02-23T15:31:54.014Z,17.93
2018-02-23T15:34:22.340Z,20.33
2018-02-23T15:36:50.454Z,16.57
2018-02-23T15:39:18.019Z,18.10
2018-02-23T15:41:45.976Z,17.33
2018-02-23T15:44:13.554Z,16.42
2018-02-23T15:46:41.349Z,16.23
2018-02-23T15:49:14.808Z,16.37
2018-02-23T15:51:57.569Z,15.90
2018-02-23T15:54:25.414Z,17.30
2018-02-23T15:56:53.298Z,16.00
2018-02-23T15:59:21.063Z,16.37
2018-02-23T16:01:48.829Z,16.63
2018-02-23T16:04:16.805Z,16.00
2018-02-23T16:06:44.408Z,17.57
2018-02-23T16:09:12.239Z,16.80
2018-02-23T16:11:40.193Z,15.80
2018-02-23T16:14:07.884Z,17.20
2018-02-23T16:16:35.623Z,14.80
2018-02-23T16:19:03.666Z,16.03
2018-02-23T16:21:31.629Z,16.80
2018-02-23T16:23:59.172Z,16.63
2018-02-23T16:26:27.040Z,17.07
2018-02-23T16:28:54.853Z,17.30
2018-02-23T16:31:22.614Z,16.77
2018-02-23T16:33:50.242Z,17.37
2018-02-23T16:36:17.798Z,18.47
2018-02-23T16:38:45.603Z,16.13
2018-02-23T16:41:13.228Z,15.57
2018-02-23T16:43:41.089Z,17.53
2018-02-23T16:46:08.805Z,17.37
2018-02-23T16:48:36.708Z,18.60
2018-02-23T16:51:04.729Z,17.97
2018-02-23T16:53:32.276Z,17.17
2018-02-23T16:55:59.920Z,16.37
2018-02-23T16:58:27.588Z,16.80
2018-02-23T17:00:55.234Z,16.23
2018-02-23T17:03:23.220Z,17.80
2018-02-23T17:05:50.858Z,18.10
2018-02-23T17:08:18.568Z,17.10
2018-02-23T17:10:46.278Z,17.20
2018-02-23T17:13:14.080Z,18.90
2018-02-23T17:15:41.813Z,19.33
2018-02-23T17:18:09.593Z,18.80
2018-02-23T17:20:37.809Z,18.67
2018-02-23T17:23:05.619Z,19.23
2018-02-23T17:25:33.239Z,17.92
2018-02-23T17:28:01.034Z,18.45
2018-02-23T17:30:28.751Z,18.20
2018-02-23T17:32:56.432Z,17.97
2018-02-23T17:35:24.265Z,17.80
2018-02-23T17:37:52.553Z,17.80
2018-02-23T17:40:20.425Z,19.80
2018-02-23T17:42:48.307Z,18.83
2018-02-23T17:45:16.113Z,18.27
2018-02-23T17:47:44.038Z,16.93
2018-02-23T17:50:11.804Z,18.77
2018-02-23T17:52:39.719Z,17.73
2018-02-23T17:55:07.324Z,18.10
2018-02-23T17:57:35.282Z,17.83
2018-02-23T18:00:03.178Z,17.20
2018-02-23T18:02:31.038Z,24.50
2018-02-23T18:04:58.634Z,20.25
2018-02-23T18:07:26.227Z,18.67
2018-02-23T18:09:53.947Z,18.30
2018-02-23T18:12:22.140Z,18.37
2018-02-23T18:14:49.839Z,18.10
2018-02-23T18:17:18.243Z,19.23
2018-02-23T18:19:46.362Z,22.80
2018-02-23T18:22:14.257Z,21.77
2018-02-23T18:24:41.837Z,19.07
2018-02-23T18:27:09.765Z,19.15
2018-02-23T18:29:37.443Z,22.13
2018-02-23T18:32:05.050Z,21.43
2018-02-23T18:34:33.039Z,19.40
2018-02-23T18:37:00.816Z,19.20
2018-02-23T18:39:28.472Z,20.20
2018-02-23T18:41:56.311Z,20.60
2018-02-23T18:44:23.884Z,21.00
2018-02-23T18:46:51.683Z,22.77
2018-02-23T18:49:20.155Z,18.30
2018-02-23T18:51:48.035Z,20.40
2018-02-23T18:54:16.773Z,20.75
2018-02-23T18:56:44.689Z,23.37
2018-02-23T18:59:12.583Z,25.10
2018-02-23T19:01:40.239Z,21.80
2018-02-23T19:04:08.494Z,24.85
2018-02-23T19:06:36.334Z,22.73
2018-02-23T19:09:04.867Z,20.23
2018-02-23T19:11:32.608Z,22.03
2018-02-23T19:14:00.403Z,18.17
2018-02-23T19:16:28.067Z,20.70
2018-02-23T19:18:55.778Z,18.57
2018-02-23T19:21:23.520Z,18.98
2018-02-23T19:23:51.189Z,20.80
2018-02-23T19:26:18.993Z,19.17
2018-02-23T19:28:46.914Z,20.03
2018-02-23T19:31:14.575Z,21.87
2018-02-23T19:33:42.382Z,18.87
2018-02-23T19:36:10.243Z,20.47
2018-02-23T19:38:38.199Z,19.43
2018-02-23T19:41:06.043Z,19.50
2018-02-23T19:43:33.714Z,18.17
2018-02-23T19:46:01.273Z,18.70
2018-02-23T19:48:29.004Z,18.90
2018-02-23T19:50:56.806Z,18.20
2018-02-23T19:53:24.769Z,18.75
2018-02-23T19:55:52.550Z,21.07
2018-02-23T19:58:20.184Z,18.50
2018-02-23T20:00:47.823Z,19.97
2018-02-23T20:03:15.474Z,18.60
2018-02-23T20:05:43.182Z,19.83
2018-02-23T20:08:11.249Z,17.20
2018-02-23T20:10:38.799Z,18.60
2018-02-23T20:13:07.220Z,21.30
2018-02-23T20:15:34.887Z,18.30
2018-02-23T20:18:02.489Z,20.30
2018-02-23T20:20:30.291Z,19.30
2018-02-23T20:22:58.057Z,19.00
2018-02-23T20:25:25.769Z,19.52
2018-02-23T20:27:53.514Z,17.70
2018-02-23T20:30:21.446Z,18.87
2018-02-23T20:32:49.148Z,17.73
2018-02-23T20:35:17.404Z,19.10
2018-02-23T20:37:45.794Z,19.45
2018-02-23T20:40:13.479Z,18.50
2018-02-23T20:42:41.374Z,18.93
2018-02-23T20:45:09.109Z,19.80
2018-02-23T20:47:37.484Z,19.93
2018-02-23T20:50:05.193Z,19.97
2018-02-23T20:52:33.849Z,19.37
2018-02-23T20:55:02.553Z,19.43
2018-02-23T20:57:30.114Z,20.33
2018-02-23T20:59:57.799Z,21.27
2018-02-23T21:02:25.377Z,20.17
2018-02-23T21:04:53.136Z,20.60
2018-02-23T21:07:20.794Z,20.87
2018-02-23T21:09:48.576Z,20.90
2018-02-23T21:12:16.388Z,18.77
2018-02-23T21:14:44.017Z,20.47
2018-02-23T21:17:11.726Z,20.37
2018-02-23T21:19:39.418Z,20.30
2018-02-23T21:22:06.977Z,20.67
2018-02-23T21:24:34.544Z,20.27
2018-02-23T21:27:02.109Z,21.35
2018-02-23T21:29:30.143Z,21.90
2018-02-23T21:31:57.818Z,19.23
2018-02-23T21:34:26.553Z,20.27
2018-02-23T21:36:54.273Z,20.30
2018-02-23T21:39:22.013Z,20.20
2018-02-23T21:41:54.430Z,20.97
2018-02-23T21:44:22.183Z,21.00
2018-02-23T21:46:49.779Z,20.53
2018-02-23T21:49:17.574Z,19.87
2018-02-23T21:51:45.238Z,20.60
2018-02-23T21:54:12.824Z,23.03
2018-02-23T21:56:40.459Z,20.53
2018-02-23T21:59:08.173Z,20.63
2018-02-23T22:01:35.767Z,21.20
2018-02-23T22:04:04.056Z,33.40
2018-02-23T22:06:31.613Z,34.73
2018-02-23T22:08:59.318Z,21.23
2018-02-23T22:11:26.978Z,21.63
2018-02-23T22:13:55.018Z,22.03
2018-02-23T22:16:22.649Z,22.48
2018-02-23T22:18:50.259Z,22.60
2018-02-23T22:21:18.044Z,24.30
2018-02-23T22:23:45.793Z,20.45
2018-02-23T22:26:14.013Z,21.17
2018-02-23T22:28:41.615Z,21.90
2018-02-23T22:31:09.278Z,22.07
2018-02-23T22:33:36.819Z,21.57
2018-02-23T22:36:04.488Z,21.57
2018-02-23T22:38:32.354Z,21.27
2018-02-23T22:41:01.084Z,22.80
2018-02-23T22:43:28.824Z,23.10
2018-02-23T22:45:56.674Z,22.20
2018-02-23T22:48:24.483Z,21.27
2018-02-23T22:50:52.268Z,21.23
2018-02-23T22:53:19.826Z,21.80
2018-02-23T22:55:47.542Z,20.60
2018-02-23T22:58:15.198Z,20.88
2018-02-23T23:00:42.907Z,21.43
2018-02-23T23:03:10.623Z,22.73
2018-02-23T23:05:38.410Z,22.57
2018-02-23T23:08:06.174Z,22.23
2018-02-23T23:10:34.056Z,21.90
2018-02-23T23:13:01.727Z,21.23
2018-02-23T23:15:29.543Z,22.67
2018-02-23T23:17:57.280Z,22.35
2018-02-23T23:20:25.203Z,21.50
2018-02-23T23:22:53.364Z,22.02
2018-02-23T23:25:20.929Z,21.33
2018-02-23T23:27:48.520Z,21.30
2018-02-23T23:30:16.339Z,22.40
2018-02-23T23:32:44.004Z,22.63
2018-02-23T23:35:12.266Z,21.45
2018-02-23T23:37:39.965Z,21.90
2018-02-23T23:40:07.810Z,22.47
2018-02-23T23:42:35.584Z,21.80
2018-02-23T23:45:03.192Z,21.90
2018-02-23T23:47:30.834Z,22.20
2018-02-23T23:49:58.492Z,22.40
2018-02-23T23:52:26.258Z,23.27
2018-02-23T23:54:53.883Z,23.67
2018-02-23T23:57:21.607Z,21.07
2018-02-23T23:59:49.549Z,21.97
